createdAt,value
2022-09-23T00:00:44.041Z,8.50
2022-09-23T00:02:49.443Z,8.40
2022-09-23T00:04:51.230Z,8.40
2022-09-23T00:06:53.703Z,8.40
2022-09-23T00:08:55.672Z,8.30
2022-09-23T00:10:58.022Z,8.40
2022-09-23T00:12:59.804Z,8.40
2022-09-23T00:15:02.035Z,8.50
2022-09-23T00:17:03.966Z,8.50
2022-09-23T00:19:06.410Z,8.50
2022-09-23T00:21:11.323Z,8.50
2022-09-23T00:23:13.389Z,8.40
2022-09-23T00:25:16.013Z,8.30
2022-09-23T00:27:20.947Z,8.30
2022-09-23T00:29:24.669Z,8.20
2022-09-23T00:31:28.462Z,8.30
2022-09-23T00:33:30.180Z,8.30
2022-09-23T00:35:33.408Z,8.30
2022-09-23T00:37:35.433Z,8.30
2022-09-23T00:39:37.084Z,8.40
2022-09-23T00:41:39.241Z,8.40
2022-09-23T00:43:43.902Z,8.40
2022-09-23T00:45:49.785Z,8.30
2022-09-23T00:48:01.668Z,8.40
2022-09-23T00:50:30.462Z,8.30
2022-09-23T00:52:34.455Z,8.30
2022-09-23T00:54:36.430Z,8.30
2022-09-23T00:56:42.098Z,8.20
2022-09-23T00:58:46.242Z,8.20
2022-09-23T01:00:48.285Z,8.10
2022-09-23T01:02:50.841Z,8.10
2022-09-23T01:04:53.438Z,8.00
2022-09-23T01:06:55.489Z,7.90
2022-09-23T01:08:57.276Z,7.90
2022-09-23T01:11:18.748Z,7.80
2022-09-23T01:13:57.719Z,7.90
2022-09-23T01:16:18.306Z,7.90
2022-09-23T01:18:48.819Z,7.90
2022-09-23T01:21:03.714Z,7.90
2022-09-23T01:23:33.304Z,7.90
2022-09-23T01:25:52.867Z,7.90
2022-09-23T01:28:29.059Z,7.90
2022-09-23T01:30:39.670Z,8.00
2022-09-23T01:32:53.506Z,7.90
2022-09-23T01:35:07.509Z,7.90
2022-09-23T01:37:30.902Z,7.80
2022-09-23T01:39:40.544Z,7.70
2022-09-23T01:42:13.573Z,7.70
2022-09-23T01:44:24.313Z,7.70
2022-09-23T01:47:10.712Z,7.70
2022-09-23T01:49:35.678Z,7.60
2022-09-23T01:51:49.846Z,7.50
2022-09-23T01:54:03.341Z,7.50
2022-09-23T01:56:13.180Z,7.50
2022-09-23T01:58:41.516Z,7.40
2022-09-23T02:00:50.281Z,7.40
2022-09-23T02:03:05.900Z,7.50
2022-09-23T02:05:18.966Z,7.50
2022-09-23T02:07:35.590Z,7.40
2022-09-23T02:09:46.057Z,7.40
2022-09-23T02:11:50.034Z,7.40
2022-09-23T02:13:58.409Z,7.40
2022-09-23T02:16:09.035Z,7.40
2022-09-23T02:18:22.001Z,7.40
2022-09-23T02:20:28.953Z,7.40
2022-09-23T02:22:39.755Z,7.50
2022-09-23T02:24:41.737Z,7.50
2022-09-23T02:26:50.910Z,7.50
2022-09-23T02:29:20.675Z,7.40
2022-09-23T02:31:40.132Z,7.40
2022-09-23T02:33:55.732Z,7.30
2022-09-23T02:36:06.845Z,7.30
2022-09-23T02:38:11.250Z,7.30
2022-09-23T02:40:18.989Z,7.20
2022-09-23T02:42:31.399Z,7.20
2022-09-23T02:44:33.454Z,7.20
2022-09-23T02:46:39.834Z,7.10
2022-09-23T02:48:52.304Z,7.10
2022-09-23T02:50:54.467Z,7.10
2022-09-23T02:53:03.330Z,7.20
2022-09-23T02:55:11.894Z,7.20
2022-09-23T02:57:14.522Z,7.20
2022-09-23T02:59:21.125Z,7.20
2022-09-23T03:01:32.589Z,7.20
2022-09-23T03:03:47.071Z,7.10
2022-09-23T03:05:58.833Z,7.10
2022-09-23T03:08:06.670Z,7.10
2022-09-23T03:10:30.997Z,7.10
2022-09-23T03:13:15.224Z,7.10
2022-09-23T03:15:43.705Z,7.10
2022-09-23T03:18:15.585Z,7.10
2022-09-23T03:20:38.094Z,7.10
2022-09-23T03:22:48.755Z,7.00
2022-09-23T03:24:54.064Z,7.00
2022-09-23T03:26:56.193Z,7.00
2022-09-23T03:29:02.617Z,6.90
2022-09-23T03:31:04.978Z,7.00
2022-09-23T03:33:12.361Z,7.00
2022-09-23T03:35:15.702Z,7.00
2022-09-23T03:37:27.047Z,7.00
2022-09-23T03:39:35.337Z,7.00
2022-09-23T03:41:51.517Z,7.00
2022-09-23T03:43:54.694Z,7.00
2022-09-23T03:45:58.201Z,7.00
2022-09-23T03:48:00.384Z,6.90
2022-09-23T03:50:02.175Z,7.00
2022-09-23T03:52:04.552Z,6.90
2022-09-23T03:54:06.985Z,6.90
2022-09-23T03:56:11.690Z,6.90
2022-09-23T03:58:13.666Z,6.90
2022-09-23T04:00:16.283Z,6.90
2022-09-23T04:02:19.506Z,6.80
2022-09-23T04:04:21.325Z,6.90
2022-09-23T04:06:23.637Z,6.90
2022-09-23T04:08:26.361Z,6.90
2022-09-23T04:10:29.343Z,6.90
2022-09-23T04:12:30.987Z,6.90
2022-09-23T04:14:32.776Z,6.80
2022-09-23T04:16:34.789Z,6.80
2022-09-23T04:18:36.649Z,6.70
2022-09-23T04:20:39.557Z,6.70
2022-09-23T04:22:42.021Z,6.70
2022-09-23T04:24:43.837Z,6.70
2022-09-23T04:26:45.907Z,6.70
2022-09-23T04:28:47.542Z,6.70
2022-09-23T04:30:49.444Z,6.70
2022-09-23T04:32:52.969Z,6.70
2022-09-23T04:34:55.942Z,6.70
2022-09-23T04:36:58.054Z,6.70
2022-09-23T04:38:59.777Z,6.70
2022-09-23T04:41:01.929Z,6.70
2022-09-23T04:43:03.686Z,6.70
2022-09-23T04:45:05.738Z,6.60
2022-09-23T04:47:07.628Z,6.60
2022-09-23T04:49:10.290Z,6.60
2022-09-23T04:51:20.742Z,6.50
2022-09-23T04:53:23.076Z,6.50
2022-09-23T04:55:25.260Z,6.50
2022-09-23T04:57:26.959Z,6.60
2022-09-23T04:59:28.670Z,6.60
2022-09-23T05:01:34.852Z,6.50
2022-09-23T05:03:39.870Z,6.50
2022-09-23T05:05:41.556Z,6.60
2022-09-23T05:07:44.425Z,6.60
2022-09-23T05:09:46.207Z,6.70
2022-09-23T05:11:49.026Z,6.60
2022-09-23T05:13:53.274Z,6.70
2022-09-23T05:16:08.136Z,6.60
2022-09-23T05:18:09.962Z,6.60
2022-09-23T05:20:13.507Z,6.60
2022-09-23T05:22:15.351Z,6.70
2022-09-23T05:24:17.723Z,6.70
2022-09-23T05:26:20.345Z,6.70
2022-09-23T05:28:23.082Z,6.70
2022-09-23T05:30:26.241Z,6.80
2022-09-23T05:32:28.202Z,6.90
2022-09-23T05:34:30.540Z,6.90
2022-09-23T05:36:38.420Z,6.90
2022-09-23T05:38:40.716Z,7.00
2022-09-23T05:40:44.171Z,7.00
2022-09-23T05:42:47.005Z,7.00
2022-09-23T05:44:49.119Z,7.10
2022-09-23T05:46:50.761Z,7.20
2022-09-23T05:48:52.951Z,7.30
2022-09-23T05:50:55.248Z,7.30
2022-09-23T05:52:56.846Z,7.40
2022-09-23T05:54:58.468Z,7.50
2022-09-23T05:57:02.734Z,7.50
2022-09-23T05:59:07.418Z,7.60
2022-09-23T06:01:11.526Z,7.80
2022-09-23T06:03:18.716Z,7.80
2022-09-23T06:05:20.562Z,7.90
2022-09-23T06:07:22.266Z,8.10
2022-09-23T06:09:24.033Z,8.20
2022-09-23T06:11:26.955Z,8.40
2022-09-23T06:13:28.749Z,8.50
2022-09-23T06:15:30.949Z,8.90
2022-09-23T06:17:33.151Z,9.50
2022-09-23T06:19:35.368Z,10.10
2022-09-23T06:21:38.965Z,10.70
2022-09-23T06:23:41.872Z,11.40
2022-09-23T06:25:43.801Z,12.10
2022-09-23T06:27:56.491Z,13.00
2022-09-23T06:29:59.786Z,13.90
2022-09-23T06:32:02.064Z,14.70
2022-09-23T06:34:11.827Z,15.20
2022-09-23T06:36:24.899Z,15.80
2022-09-23T06:38:40.452Z,16.30
2022-09-23T06:40:42.603Z,16.60
2022-09-23T06:42:46.309Z,17.10
2022-09-23T06:44:50.614Z,17.40
2022-09-23T06:46:54.081Z,17.50
2022-09-23T06:48:55.846Z,17.80
2022-09-23T06:51:02.473Z,18.30
2022-09-23T06:53:04.734Z,18.70
2022-09-23T06:55:08.212Z,18.90
2022-09-23T06:57:10.165Z,19.20
2022-09-23T06:59:13.122Z,19.10
2022-09-23T07:01:17.373Z,19.40
2022-09-23T07:03:19.037Z,19.50
2022-09-23T07:05:22.291Z,19.30
2022-09-23T07:07:23.994Z,19.10
2022-09-23T07:09:26.272Z,18.60
2022-09-23T07:11:28.193Z,18.30
2022-09-23T07:13:34.025Z,17.80
2022-09-23T07:15:36.543Z,17.40
2022-09-23T07:17:41.100Z,17.00
2022-09-23T07:19:43.389Z,16.80
2022-09-23T07:21:45.001Z,16.70
2022-09-23T07:23:50.163Z,16.90
2022-09-23T07:25:54.010Z,16.80
2022-09-23T07:27:56.234Z,17.30
2022-09-23T07:29:58.852Z,17.70
2022-09-23T07:32:12.359Z,18.10
2022-09-23T07:34:15.258Z,18.30
2022-09-23T07:36:19.001Z,18.50
2022-09-23T07:38:20.635Z,19.00
2022-09-23T07:40:23.546Z,19.40
2022-09-23T07:42:25.324Z,19.50
2022-09-23T07:44:27.302Z,19.90
2022-09-23T07:46:31.611Z,20.40
2022-09-23T07:48:34.844Z,20.80
2022-09-23T07:50:39.211Z,21.00
2022-09-23T07:52:42.483Z,20.80
2022-09-23T07:54:46.988Z,20.70
2022-09-23T07:56:48.658Z,20.80
2022-09-23T07:59:00.867Z,21.10
2022-09-23T08:01:08.416Z,21.20
2022-09-23T08:03:10.144Z,20.80
2022-09-23T08:05:13.132Z,20.20
2022-09-23T08:07:15.128Z,20.00
2022-09-23T08:09:20.068Z,19.90
2022-09-23T08:11:21.767Z,19.90
2022-09-23T08:13:23.415Z,19.90
2022-09-23T08:15:25.095Z,19.60
2022-09-23T08:17:27.569Z,19.60
2022-09-23T08:19:29.166Z,19.20
2022-09-23T08:21:30.799Z,18.90
2022-09-23T08:23:35.412Z,18.60
2022-09-23T08:25:37.916Z,18.10
2022-09-23T08:27:42.559Z,17.80
2022-09-23T08:29:46.499Z,17.70
2022-09-23T08:31:49.598Z,17.50
2022-09-23T08:33:55.954Z,17.40
2022-09-23T08:36:02.048Z,17.40
2022-09-23T08:38:04.465Z,17.40
2022-09-23T08:40:06.782Z,17.00
2022-09-23T08:42:18.371Z,17.30
2022-09-23T08:44:34.322Z,17.70
2022-09-23T08:46:43.289Z,17.70
2022-09-23T08:48:47.542Z,18.30
2022-09-23T08:50:58.414Z,18.80
2022-09-23T08:53:04.377Z,18.90
2022-09-23T08:55:12.019Z,19.00
2022-09-23T08:57:43.871Z,19.10
2022-09-23T08:59:45.753Z,19.30
2022-09-23T09:01:56.375Z,19.50
2022-09-23T09:04:00.837Z,19.70
2022-09-23T09:06:04.184Z,19.90
2022-09-23T09:08:06.104Z,19.90
2022-09-23T09:10:23.839Z,19.50
2022-09-23T09:12:40.905Z,19.60
2022-09-23T09:14:57.122Z,19.70
2022-09-23T09:17:09.574Z,19.80
2022-09-23T09:19:32.275Z,20.10
2022-09-23T09:21:39.765Z,20.20
2022-09-23T09:23:51.887Z,19.90
2022-09-23T09:25:57.471Z,19.60
2022-09-23T09:28:00.206Z,19.70
2022-09-23T09:30:02.286Z,19.90
2022-09-23T09:32:24.493Z,19.80
2022-09-23T09:34:44.526Z,19.90
2022-09-23T09:37:12.680Z,20.20
2022-09-23T09:39:15.661Z,20.20
2022-09-23T09:41:21.574Z,20.10
2022-09-23T09:43:23.486Z,20.20
2022-09-23T09:45:35.607Z,20.30
2022-09-23T09:48:06.235Z,20.50
2022-09-23T09:50:11.692Z,20.80
2022-09-23T09:52:29.682Z,20.30
2022-09-23T09:54:31.602Z,20.30
2022-09-23T09:56:35.946Z,20.50
2022-09-23T09:58:50.495Z,20.70
2022-09-23T10:00:52.853Z,20.50
2022-09-23T10:03:03.004Z,20.30
2022-09-23T10:05:07.309Z,20.40
2022-09-23T10:07:17.360Z,20.80
2022-09-23T10:09:19.504Z,21.00
2022-09-23T10:11:22.013Z,21.50
2022-09-23T10:13:24.288Z,21.60
2022-09-23T10:15:27.528Z,22.10
2022-09-23T10:17:32.278Z,22.40
2022-09-23T10:19:36.589Z,22.80
2022-09-23T10:21:39.247Z,23.50
2022-09-23T10:23:46.402Z,23.60
2022-09-23T10:26:02.909Z,23.80
2022-09-23T10:28:46.266Z,24.20
2022-09-23T10:31:09.991Z,24.30
2022-09-23T10:33:28.464Z,24.70
2022-09-23T10:35:33.867Z,24.80
2022-09-23T10:37:57.806Z,24.80
2022-09-23T10:40:19.754Z,24.90
2022-09-23T10:43:14.831Z,24.70
2022-09-23T10:45:47.740Z,24.40
2022-09-23T10:48:22.118Z,24.00
2022-09-23T10:50:42.382Z,24.10
2022-09-23T10:53:03.798Z,24.20
2022-09-23T10:55:23.750Z,24.20
2022-09-23T10:57:44.142Z,24.00
2022-09-23T11:00:31.273Z,24.00
2022-09-23T11:03:03.957Z,23.80
2022-09-23T11:05:38.168Z,23.80
2022-09-23T11:08:11.681Z,23.90
2022-09-23T11:10:46.530Z,23.90
2022-09-23T11:13:13.302Z,23.70
2022-09-23T11:15:42.731Z,23.90
2022-09-23T11:18:16.614Z,23.90
2022-09-23T11:20:41.885Z,23.80
2022-09-23T11:22:58.764Z,23.70
2022-09-23T11:25:07.787Z,23.60
2022-09-23T11:27:28.329Z,23.60
2022-09-23T11:29:32.945Z,24.00
2022-09-23T11:32:10.190Z,24.30
2022-09-23T11:34:16.023Z,24.60
2022-09-23T11:36:27.022Z,24.70
2022-09-23T11:38:42.698Z,24.80
2022-09-23T11:40:49.587Z,24.30
2022-09-23T11:42:59.917Z,24.10
2022-09-23T11:45:08.574Z,23.70
2022-09-23T11:47:28.612Z,23.50
2022-09-23T11:49:36.620Z,23.50
2022-09-23T11:52:08.655Z,23.00
2022-09-23T11:54:24.370Z,23.10
2022-09-23T11:56:35.424Z,23.40
2022-09-23T11:58:50.125Z,23.60
2022-09-23T12:01:03.088Z,23.70
2022-09-23T12:03:44.696Z,23.40
2022-09-23T12:06:12.576Z,23.40
2022-09-23T12:08:36.667Z,24.00
2022-09-23T12:11:02.943Z,24.30
2022-09-23T12:13:11.267Z,24.50
2022-09-23T12:15:24.896Z,25.00
2022-09-23T12:17:49.773Z,25.30
2022-09-23T12:20:07.703Z,25.70
2022-09-23T12:22:15.943Z,25.70
2022-09-23T12:24:35.390Z,25.30
2022-09-23T12:26:39.348Z,24.80
2022-09-23T12:28:46.627Z,25.00
2022-09-23T12:30:50.218Z,24.80
2022-09-23T12:32:52.213Z,24.80
2022-09-23T12:34:54.755Z,25.10
2022-09-23T12:37:03.995Z,25.20
2022-09-23T12:39:17.614Z,25.30
2022-09-23T12:41:37.705Z,25.50
2022-09-23T12:43:54.817Z,26.20
2022-09-23T12:46:27.928Z,26.00
2022-09-23T12:49:02.058Z,26.80
2022-09-23T12:51:04.224Z,27.10
2022-09-23T12:53:33.763Z,26.80
2022-09-23T12:55:36.164Z,27.10
2022-09-23T12:57:38.263Z,27.40
2022-09-23T12:59:55.154Z,27.20
2022-09-23T13:01:57.965Z,26.60
2022-09-23T13:04:18.445Z,26.30
2022-09-23T13:06:40.546Z,26.20
2022-09-23T13:08:43.241Z,25.80
2022-09-23T13:11:00.148Z,25.10
2022-09-23T13:13:03.365Z,25.00
2022-09-23T13:15:15.058Z,25.00
2022-09-23T13:17:39.260Z,24.80
2022-09-23T13:19:40.988Z,24.80
2022-09-23T13:21:42.599Z,25.00
2022-09-23T13:24:12.982Z,25.60
2022-09-23T13:26:15.471Z,25.50
2022-09-23T13:28:34.730Z,25.50
2022-09-23T13:30:36.438Z,25.60
2022-09-23T13:33:00.787Z,25.50
2022-09-23T13:35:35.826Z,25.60
2022-09-23T13:37:37.467Z,25.80
2022-09-23T13:39:39.051Z,26.10
2022-09-23T13:41:42.966Z,25.70
2022-09-23T13:43:56.648Z,25.70
2022-09-23T13:46:00.736Z,25.90
2022-09-23T13:48:23.729Z,25.70
2022-09-23T13:50:26.177Z,25.30
2022-09-23T13:52:31.526Z,25.20
2022-09-23T13:54:46.256Z,24.70
2022-09-23T13:56:49.622Z,24.40
2022-09-23T13:58:52.300Z,23.60
2022-09-23T14:00:54.033Z,23.20
2022-09-23T14:02:56.235Z,22.70
2022-09-23T14:04:59.261Z,22.20
2022-09-23T14:07:02.012Z,21.90
2022-09-23T14:09:06.400Z,21.70
2022-09-23T14:11:08.217Z,21.80
2022-09-23T14:13:25.419Z,21.90
2022-09-23T14:15:28.249Z,22.20
2022-09-23T14:17:30.400Z,22.50
2022-09-23T14:19:32.559Z,22.40
2022-09-23T14:21:35.552Z,22.50
2022-09-23T14:23:44.808Z,22.70
2022-09-23T14:25:47.817Z,23.00
2022-09-23T14:27:49.922Z,23.10
2022-09-23T14:29:51.816Z,23.20
2022-09-23T14:31:57.168Z,23.30
2022-09-23T14:33:59.829Z,23.10
2022-09-23T14:36:34.060Z,23.10
2022-09-23T14:38:56.716Z,23.00
2022-09-23T14:41:18.187Z,23.00
2022-09-23T14:43:26.066Z,23.10
2022-09-23T14:45:33.288Z,23.50
2022-09-23T14:47:35.750Z,23.60
2022-09-23T14:49:38.061Z,23.70
2022-09-23T14:51:57.059Z,23.50
2022-09-23T14:54:37.514Z,23.20
2022-09-23T14:56:44.492Z,22.80
2022-09-23T14:58:57.267Z,22.30
2022-09-23T15:01:01.555Z,21.80
2022-09-23T15:03:14.531Z,21.30
2022-09-23T15:05:18.456Z,21.00
2022-09-23T15:07:23.624Z,20.80
2022-09-23T15:09:31.182Z,20.80
2022-09-23T15:11:35.061Z,20.50
2022-09-23T15:13:44.423Z,20.30
2022-09-23T15:15:46.350Z,20.30
2022-09-23T15:17:48.485Z,20.20
2022-09-23T15:19:55.449Z,20.10
2022-09-23T15:21:58.180Z,20.00
2022-09-23T15:24:01.953Z,19.70
2022-09-23T15:26:17.547Z,19.50
2022-09-23T15:28:22.120Z,19.40
2022-09-23T15:30:25.438Z,19.10
2022-09-23T15:32:27.046Z,19.00
2022-09-23T15:34:29.325Z,18.80
2022-09-23T15:36:31.823Z,18.70
2022-09-23T15:38:34.115Z,18.60
2022-09-23T15:40:37.146Z,18.60
2022-09-23T15:42:38.861Z,18.60
2022-09-23T15:44:40.694Z,18.40
2022-09-23T15:46:48.191Z,18.20
2022-09-23T15:49:14.571Z,18.10
2022-09-23T15:51:17.049Z,17.90
2022-09-23T15:53:26.396Z,17.80
2022-09-23T15:55:28.421Z,17.60
2022-09-23T15:57:30.039Z,17.50
2022-09-23T15:59:34.449Z,17.40
2022-09-23T16:01:39.064Z,17.20
2022-09-23T16:03:40.983Z,17.00
2022-09-23T16:05:46.611Z,16.90
2022-09-23T16:07:52.370Z,16.80
2022-09-23T16:09:55.541Z,16.60
2022-09-23T16:12:00.785Z,16.60
2022-09-23T16:14:02.512Z,16.50
2022-09-23T16:16:05.305Z,16.40
2022-09-23T16:18:09.428Z,16.20
2022-09-23T16:20:16.466Z,16.10
2022-09-23T16:22:18.120Z,16.00
2022-09-23T16:24:22.582Z,15.80
2022-09-23T16:26:31.852Z,15.70
2022-09-23T16:28:35.067Z,15.60
2022-09-23T16:30:37.408Z,15.50
2022-09-23T16:32:39.321Z,15.50
2022-09-23T16:34:41.367Z,15.40
2022-09-23T16:36:46.029Z,15.30
2022-09-23T16:38:48.919Z,15.30
2022-09-23T16:40:51.452Z,15.20
2022-09-23T16:42:54.863Z,15.20
2022-09-23T16:44:56.604Z,15.20
2022-09-23T16:46:58.744Z,15.10
2022-09-23T16:49:01.042Z,15.00
2022-09-23T16:51:05.779Z,14.90
2022-09-23T16:53:08.591Z,14.80
2022-09-23T16:55:12.084Z,14.70
2022-09-23T16:57:14.150Z,14.60
2022-09-23T16:59:17.380Z,14.50
2022-09-23T17:01:42.053Z,14.40
2022-09-23T17:03:44.279Z,14.30
2022-09-23T17:05:47.095Z,14.10
2022-09-23T17:07:49.332Z,14.10
2022-09-23T17:09:53.465Z,14.00
2022-09-23T17:12:16.105Z,13.90
2022-09-23T17:14:19.506Z,13.80
2022-09-23T17:16:28.292Z,13.80
2022-09-23T17:18:30.778Z,13.70
2022-09-23T17:20:33.398Z,13.60
2022-09-23T17:22:36.229Z,13.60
2022-09-23T17:24:38.342Z,13.50
2022-09-23T17:26:40.657Z,13.50
2022-09-23T17:28:43.115Z,13.40
2022-09-23T17:30:44.765Z,13.40
2022-09-23T17:32:47.418Z,13.40
2022-09-23T17:34:49.936Z,13.30
2022-09-23T17:36:52.002Z,13.30
2022-09-23T17:38:53.902Z,13.30
2022-09-23T17:40:59.711Z,13.30
2022-09-23T17:43:01.597Z,13.30
2022-09-23T17:45:03.266Z,13.20
2022-09-23T17:47:06.929Z,13.20
2022-09-23T17:49:10.158Z,13.20
2022-09-23T17:51:14.755Z,13.10
2022-09-23T17:53:16.786Z,13.10
2022-09-23T17:55:19.448Z,13.10
2022-09-23T17:57:21.938Z,13.00
2022-09-23T17:59:25.277Z,13.00
2022-09-23T18:01:28.674Z,12.90
2022-09-23T18:03:32.743Z,12.90
2022-09-23T18:05:34.499Z,12.90
2022-09-23T18:07:36.176Z,12.80
2022-09-23T18:09:38.282Z,12.80
2022-09-23T18:11:42.623Z,12.80
2022-09-23T18:13:59.418Z,12.80
2022-09-23T18:16:02.733Z,12.70
2022-09-23T18:18:05.380Z,12.60
2022-09-23T18:20:07.698Z,12.60
2022-09-23T18:22:09.378Z,12.60
2022-09-23T18:26:34.434Z,12.50
2022-09-23T18:28:36.735Z,12.50
2022-09-23T18:30:38.365Z,12.40
2022-09-23T18:32:40.070Z,12.40
2022-09-23T18:34:41.679Z,12.40
2022-09-23T18:36:44.527Z,12.30
2022-09-23T18:38:47.947Z,12.30
2022-09-23T18:40:56.352Z,12.30
2022-09-23T18:42:58.308Z,12.30
2022-09-23T18:45:01.918Z,12.30
2022-09-23T18:47:04.140Z,12.30
2022-09-23T18:49:25.158Z,12.20
2022-09-23T18:51:29.405Z,12.20
2022-09-23T18:53:32.511Z,12.20
2022-09-23T18:55:35.878Z,12.20
2022-09-23T18:57:37.683Z,12.20
2022-09-23T18:59:40.291Z,12.20
2022-09-23T19:01:43.475Z,12.20
2022-09-23T19:03:46.079Z,12.30
2022-09-23T19:05:48.608Z,12.30
2022-09-23T19:07:51.097Z,12.40
2022-09-23T19:09:53.140Z,12.40
2022-09-23T19:11:55.005Z,12.40
2022-09-23T19:14:01.402Z,12.40
2022-09-23T19:16:11.691Z,12.40
2022-09-23T19:18:13.334Z,12.50
2022-09-23T19:20:14.939Z,12.50
2022-09-23T19:22:17.670Z,12.50
2022-09-23T19:24:20.483Z,12.60
2022-09-23T19:26:27.540Z,12.60
2022-09-23T19:28:29.316Z,12.70
2022-09-23T19:30:30.918Z,12.70
2022-09-23T19:32:35.140Z,12.70
2022-09-23T19:34:38.522Z,12.70
2022-09-23T19:36:42.983Z,12.80
2022-09-23T19:38:45.119Z,12.80
2022-09-23T19:40:49.902Z,12.80
2022-09-23T19:42:55.017Z,12.80
2022-09-23T19:44:57.133Z,12.80
2022-09-23T19:46:58.796Z,12.80
2022-09-23T19:49:00.971Z,12.70
2022-09-23T19:51:04.255Z,12.70
2022-09-23T19:53:08.898Z,12.60
2022-09-23T19:55:11.026Z,12.50
2022-09-23T19:57:13.630Z,12.50
2022-09-23T19:59:18.716Z,12.40
2022-09-23T20:01:22.392Z,12.40
2022-09-23T20:03:25.755Z,12.40
2022-09-23T20:05:30.410Z,12.40
2022-09-23T20:07:32.468Z,12.40
2022-09-23T20:09:34.265Z,12.40
2022-09-23T20:11:35.974Z,12.30
2022-09-23T20:13:40.217Z,12.30
2022-09-23T20:15:42.611Z,12.30
2022-09-23T20:17:46.606Z,12.30
2022-09-23T20:19:48.747Z,12.20
2022-09-23T20:22:10.322Z,12.30
2022-09-23T20:24:13.060Z,12.30
2022-09-23T20:26:33.536Z,12.30
2022-09-23T20:28:35.174Z,12.40
2022-09-23T20:30:39.007Z,12.40
2022-09-23T20:32:44.645Z,12.40
2022-09-23T20:34:48.672Z,12.40
2022-09-23T20:36:50.283Z,12.30
2022-09-23T20:39:00.351Z,12.40
2022-09-23T20:41:02.568Z,12.30
2022-09-23T20:43:05.104Z,12.30
2022-09-23T20:45:07.420Z,12.30
2022-09-23T20:47:13.961Z,12.30
2022-09-23T20:49:17.155Z,12.30
2022-09-23T20:51:18.814Z,12.30
2022-09-23T20:53:22.783Z,12.30
2022-09-23T20:55:24.403Z,12.30
2022-09-23T20:57:27.647Z,12.30
2022-09-23T20:59:29.408Z,12.30
2022-09-23T21:01:36.957Z,12.20
2022-09-23T21:03:44.506Z,12.20
2022-09-23T21:05:46.145Z,12.20
2022-09-23T21:07:48.644Z,12.20
2022-09-23T21:09:50.495Z,12.20
2022-09-23T21:11:52.111Z,12.20
2022-09-23T21:13:55.649Z,12.30
2022-09-23T21:16:06.559Z,12.30
2022-09-23T21:18:13.655Z,12.30
2022-09-23T21:20:16.777Z,12.20
2022-09-23T21:22:18.716Z,12.20
2022-09-23T21:26:44.379Z,12.20
2022-09-23T21:28:55.387Z,12.20
2022-09-23T21:31:02.600Z,12.20
2022-09-23T21:33:06.045Z,12.20
2022-09-23T21:35:09.963Z,12.20
2022-09-23T21:37:11.606Z,12.20
2022-09-23T21:39:13.383Z,12.20
2022-09-23T21:41:15.490Z,12.10
2022-09-23T21:43:17.883Z,12.10
2022-09-23T21:45:20.329Z,12.10
2022-09-23T21:47:21.987Z,12.10
2022-09-23T21:49:23.804Z,12.10
2022-09-23T21:51:27.987Z,12.20
2022-09-23T21:53:31.836Z,12.20
2022-09-23T21:55:33.674Z,12.20
2022-09-23T21:57:35.892Z,12.20
2022-09-23T21:59:37.799Z,12.10
2022-09-23T22:01:44.258Z,12.10
2022-09-23T22:03:54.986Z,12.10
2022-09-23T22:06:21.703Z,12.10
2022-09-23T22:08:24.186Z,12.10
2022-09-23T22:10:26.193Z,12.10
2022-09-23T22:12:27.791Z,12.10
2022-09-23T22:14:31.118Z,12.10
2022-09-23T22:16:33.513Z,12.10
2022-09-23T22:18:36.047Z,12.10
2022-09-23T22:20:40.900Z,12.10
2022-09-23T22:22:42.532Z,12.10
2022-09-23T22:24:46.880Z,12.10
2022-09-23T22:26:49.480Z,12.10
2022-09-23T22:29:10.230Z,12.00
2022-09-23T22:31:30.473Z,12.00
2022-09-23T22:33:32.955Z,12.00
2022-09-23T22:35:35.135Z,12.00
2022-09-23T22:37:38.531Z,12.00
2022-09-23T22:39:41.036Z,12.00
2022-09-23T22:41:43.565Z,12.00
2022-09-23T22:43:45.173Z,12.00
2022-09-23T22:45:53.474Z,12.00
2022-09-23T22:47:55.230Z,11.90
2022-09-23T22:49:57.437Z,11.90
2022-09-23T22:51:59.666Z,11.90
2022-09-23T22:54:01.409Z,11.90
2022-09-23T22:56:03.077Z,11.80
2022-09-23T22:58:21.577Z,11.80
2022-09-23T23:00:29.014Z,11.70
2022-09-23T23:02:31.484Z,11.70
2022-09-23T23:04:34.194Z,11.70
2022-09-23T23:06:37.226Z,11.70
2022-09-23T23:08:38.857Z,11.70
2022-09-23T23:10:41.154Z,11.60
2022-09-23T23:12:42.946Z,11.60
2022-09-23T23:14:45.021Z,11.60
2022-09-23T23:16:46.990Z,11.60
2022-09-23T23:18:48.949Z,11.60
2022-09-23T23:20:50.899Z,11.60
2022-09-23T23:22:53.957Z,11.60
2022-09-23T23:24:56.207Z,11.70
2022-09-23T23:26:57.900Z,11.70
2022-09-23T23:29:00.076Z,11.70
2022-09-23T23:31:08.067Z,11.70
2022-09-23T23:33:10.023Z,11.70
2022-09-23T23:35:11.763Z,11.80
2022-09-23T23:37:15.791Z,11.80
2022-09-23T23:39:19.349Z,11.90
2022-09-23T23:41:23.017Z,11.90
2022-09-23T23:43:25.558Z,12.00
2022-09-23T23:45:27.816Z,12.00
2022-09-23T23:47:30.046Z,12.10
2022-09-23T23:49:31.869Z,12.10
2022-09-23T23:51:33.825Z,12.10
2022-09-23T23:53:38.432Z,12.00
2022-09-23T23:55:40.754Z,12.00
2022-09-23T23:57:42.552Z,12.10
2022-09-23T23:59:44.566Z,12.00
